sensor_id;sensor_type;location;lat;lon;timestamp;temperature;humidity
15288;DHT22;7745;48.708;9.026;2024-02-28T00:00:08;7.00;99.90
15288;DHT22;7745;48.708;9.026;2024-02-28T00:02:36;6.90;99.90
15288;DHT22;7745;48.708;9.026;2024-02-28T00:05:03;6.90;99.90
15288;DHT22;7745;48.708;9.026;2024-02-28T00:07:30;6.80;99.90
15288;DHT22;7745;48.708;9.026;2024-02-28T00:09:57;6.80;99.90
15288;DHT22;7745;48.708;9.026;2024-02-28T00:12:24;6.80;99.90
15288;DHT22;7745;48.708;9.026;2024-02-28T00:14:53;6.70;99.90
15288;DHT22;7745;48.708;9.026;2024-02-28T00:17:20;6.70;99.90
15288;DHT22;7745;48.708;9.026;2024-02-28T00:19:46;6.90;99.90
15288;DHT22;7745;48.708;9.026;2024-02-28T00:22:13;6.60;99.90
15288;DHT22;7745;48.708;9.026;2024-02-28T00:24:41;6.60;99.90
15288;DHT22;7745;48.708;9.026;2024-02-28T00:27:08;6.60;99.90
15288;DHT22;7745;48.708;9.026;2024-02-28T00:29:35;6.50;99.90
15288;DHT22;7745;48.708;9.026;2024-02-28T00:32:03;6.50;99.90
15288;DHT22;7745;48.708;9.026;2024-02-28T00:34:31;6.40;99.90
15288;DHT22;7745;48.708;9.026;2024-02-28T00:36:58;6.40;99.90
15288;DHT22;7745;48.708;9.026;2024-02-28T00:39:25;6.30;99.90
15288;DHT22;7745;48.708;9.026;2024-02-28T00:41:51;6.30;99.90
15288;DHT22;7745;48.708;9.026;2024-02-28T00:44:18;6.20;99.90
15288;DHT22;7745;48.708;9.026;2024-02-28T00:46:45;6.20;99.90
15288;DHT22;7745;48.708;9.026;2024-02-28T00:49:14;6.10;99.90
15288;DHT22;7745;48.708;9.026;2024-02-28T00:51:40;6.10;99.90
15288;DHT22;7745;48.708;9.026;2024-02-28T00:54:07;6.10;99.90
15288;DHT22;7745;48.708;9.026;2024-02-28T00:56:34;6.10;99.90
15288;DHT22;7745;48.708;9.026;2024-02-28T00:59:01;6.10;99.90
15288;DHT22;7745;48.708;9.026;2024-02-28T01:01:28;6.10;99.90
15288;DHT22;7745;48.708;9.026;2024-02-28T01:03:55;6.10;99.90
15288;DHT22;7745;48.708;9.026;2024-02-28T01:06:23;6.10;99.90
15288;DHT22;7745;48.708;9.026;2024-02-28T01:08:50;6.10;99.90
15288;DHT22;7745;48.708;9.026;2024-02-28T01:11:17;6.10;99.90
15288;DHT22;7745;48.708;9.026;2024-02-28T01:13:44;6.10;99.90
15288;DHT22;7745;48.708;9.026;2024-02-28T01:16:11;6.10;99.90
15288;DHT22;7745;48.708;9.026;2024-02-28T01:18:38;6.10;99.90
15288;DHT22;7745;48.708;9.026;2024-02-28T01:21:05;6.20;99.90
15288;DHT22;7745;48.708;9.026;2024-02-28T01:23:34;6.20;99.90
15288;DHT22;7745;48.708;9.026;2024-02-28T01:26:00;6.20;99.90
15288;DHT22;7745;48.708;9.026;2024-02-28T01:28:28;6.20;99.90
15288;DHT22;7745;48.708;9.026;2024-02-28T01:30:55;6.20;99.90
15288;DHT22;7745;48.708;9.026;2024-02-28T01:33:23;6.30;99.90
15288;DHT22;7745;48.708;9.026;2024-02-28T01:35:49;6.50;99.90
15288;DHT22;7745;48.708;9.026;2024-02-28T01:38:16;6.30;99.90
15288;DHT22;7745;48.708;9.026;2024-02-28T01:40:46;6.20;99.90
15288;DHT22;7745;48.708;9.026;2024-02-28T01:43:13;6.30;99.90
15288;DHT22;7745;48.708;9.026;2024-02-28T01:45:40;6.20;99.90
15288;DHT22;7745;48.708;9.026;2024-02-28T01:48:09;6.30;99.90
15288;DHT22;7745;48.708;9.026;2024-02-28T01:50:37;6.30;99.90
15288;DHT22;7745;48.708;9.026;2024-02-28T01:53:05;6.30;99.90
15288;DHT22;7745;48.708;9.026;2024-02-28T01:55:34;6.30;99.90
15288;DHT22;7745;48.708;9.026;2024-02-28T01:58:03;6.40;99.90
15288;DHT22;7745;48.708;9.026;2024-02-28T02:00:32;6.40;99.90
15288;DHT22;7745;48.708;9.026;2024-02-28T02:02:59;6.40;99.90
15288;DHT22;7745;48.708;9.026;2024-02-28T02:05:30;6.40;99.90
15288;DHT22;7745;48.708;9.026;2024-02-28T02:07:57;6.40;99.90
15288;DHT22;7745;48.708;9.026;2024-02-28T02:10:24;6.40;99.90
15288;DHT22;7745;48.708;9.026;2024-02-28T02:12:52;6.50;99.90
15288;DHT22;7745;48.708;9.026;2024-02-28T02:15:20;6.40;99.90
15288;DHT22;7745;48.708;9.026;2024-02-28T02:17:47;6.50;99.90
15288;DHT22;7745;48.708;9.026;2024-02-28T02:20:14;6.40;99.90
15288;DHT22;7745;48.708;9.026;2024-02-28T02:22:43;6.50;99.90
15288;DHT22;7745;48.708;9.026;2024-02-28T02:25:10;6.50;99.90
15288;DHT22;7745;48.708;9.026;2024-02-28T02:27:37;6.50;99.90
15288;DHT22;7745;48.708;9.026;2024-02-28T02:30:05;6.50;99.90
15288;DHT22;7745;48.708;9.026;2024-02-28T02:32:32;6.50;99.90
15288;DHT22;7745;48.708;9.026;2024-02-28T02:34:58;6.50;99.90
15288;DHT22;7745;48.708;9.026;2024-02-28T02:37:26;6.40;99.90
15288;DHT22;7745;48.708;9.026;2024-02-28T02:39:54;6.40;99.90
15288;DHT22;7745;48.708;9.026;2024-02-28T02:42:21;6.40;99.90
15288;DHT22;7745;48.708;9.026;2024-02-28T02:44:48;6.40;99.90
15288;DHT22;7745;48.708;9.026;2024-02-28T02:47:15;6.40;99.90
15288;DHT22;7745;48.708;9.026;2024-02-28T02:49:41;6.40;99.90
15288;DHT22;7745;48.708;9.026;2024-02-28T02:52:08;6.40;99.90
15288;DHT22;7745;48.708;9.026;2024-02-28T02:54:36;6.40;99.90
15288;DHT22;7745;48.708;9.026;2024-02-28T02:57:05;6.40;99.90
15288;DHT22;7745;48.708;9.026;2024-02-28T02:59:31;6.40;99.90
15288;DHT22;7745;48.708;9.026;2024-02-28T03:01:58;6.40;99.90
15288;DHT22;7745;48.708;9.026;2024-02-28T03:04:25;6.40;99.90
15288;DHT22;7745;48.708;9.026;2024-02-28T03:06:52;6.50;99.90
15288;DHT22;7745;48.708;9.026;2024-02-28T03:09:19;6.50;99.90
15288;DHT22;7745;48.708;9.026;2024-02-28T03:11:46;6.50;99.90
15288;DHT22;7745;48.708;9.026;2024-02-28T03:14:14;6.40;99.90
15288;DHT22;7745;48.708;9.026;2024-02-28T03:16:41;6.40;99.90
15288;DHT22;7745;48.708;9.026;2024-02-28T03:19:10;6.40;99.90
15288;DHT22;7745;48.708;9.026;2024-02-28T03:21:37;6.40;99.90
15288;DHT22;7745;48.708;9.026;2024-02-28T03:24:04;6.40;99.90
15288;DHT22;7745;48.708;9.026;2024-02-28T03:26:31;6.40;99.90
15288;DHT22;7745;48.708;9.026;2024-02-28T03:28:58;6.50;99.90
15288;DHT22;7745;48.708;9.026;2024-02-28T03:31:26;6.40;99.90
15288;DHT22;7745;48.708;9.026;2024-02-28T03:33:53;6.40;99.90
15288;DHT22;7745;48.708;9.026;2024-02-28T03:36:20;6.40;99.90
15288;DHT22;7745;48.708;9.026;2024-02-28T03:38:47;6.40;99.90
15288;DHT22;7745;48.708;9.026;2024-02-28T03:41:14;6.40;99.90
15288;DHT22;7745;48.708;9.026;2024-02-28T03:43:40;6.40;99.90
15288;DHT22;7745;48.708;9.026;2024-02-28T03:46:07;6.40;99.90
15288;DHT22;7745;48.708;9.026;2024-02-28T03:48:36;6.40;99.90
15288;DHT22;7745;48.708;9.026;2024-02-28T03:51:03;6.40;99.90
15288;DHT22;7745;48.708;9.026;2024-02-28T03:53:30;6.40;99.90
15288;DHT22;7745;48.708;9.026;2024-02-28T03:55:57;6.40;99.90
15288;DHT22;7745;48.708;9.026;2024-02-28T03:58:24;6.40;99.90
15288;DHT22;7745;48.708;9.026;2024-02-28T04:00:51;6.40;99.90
15288;DHT22;7745;48.708;9.026;2024-02-28T04:03:18;6.40;99.90
15288;DHT22;7745;48.708;9.026;2024-02-28T04:05:46;6.30;99.90
15288;DHT22;7745;48.708;9.026;2024-02-28T04:08:13;6.40;99.90
15288;DHT22;7745;48.708;9.026;2024-02-28T04:10:40;6.40;99.90
15288;DHT22;7745;48.708;9.026;2024-02-28T04:13:07;6.40;99.90
15288;DHT22;7745;48.708;9.026;2024-02-28T04:15:34;6.30;99.90
15288;DHT22;7745;48.708;9.026;2024-02-28T04:18:03;6.40;99.90
15288;DHT22;7745;48.708;9.026;2024-02-28T04:20:30;6.40;99.90
15288;DHT22;7745;48.708;9.026;2024-02-28T04:22:58;6.30;99.90
15288;DHT22;7745;48.708;9.026;2024-02-28T04:25:25;6.40;99.90
15288;DHT22;7745;48.708;9.026;2024-02-28T04:27:52;6.30;99.90
15288;DHT22;7745;48.708;9.026;2024-02-28T04:30:19;6.30;99.90
15288;DHT22;7745;48.708;9.026;2024-02-28T04:32:45;6.30;99.90
15288;DHT22;7745;48.708;9.026;2024-02-28T04:35:12;6.20;99.90
15288;DHT22;7745;48.708;9.026;2024-02-28T04:37:41;6.30;99.90
15288;DHT22;7745;48.708;9.026;2024-02-28T04:40:10;6.30;99.90
15288;DHT22;7745;48.708;9.026;2024-02-28T04:42:37;6.30;99.90
15288;DHT22;7745;48.708;9.026;2024-02-28T04:45:05;6.30;99.90
15288;DHT22;7745;48.708;9.026;2024-02-28T04:47:32;6.30;99.90
15288;DHT22;7745;48.708;9.026;2024-02-28T04:49:59;6.20;99.90
15288;DHT22;7745;48.708;9.026;2024-02-28T04:52:26;6.20;99.90
15288;DHT22;7745;48.708;9.026;2024-02-28T04:54:53;6.10;99.90
15288;DHT22;7745;48.708;9.026;2024-02-28T04:57:22;6.20;99.90
15288;DHT22;7745;48.708;9.026;2024-02-28T04:59:49;6.10;99.90
15288;DHT22;7745;48.708;9.026;2024-02-28T05:02:15;6.10;99.90
15288;DHT22;7745;48.708;9.026;2024-02-28T05:04:42;6.10;99.90
15288;DHT22;7745;48.708;9.026;2024-02-28T05:07:09;6.10;99.90
15288;DHT22;7745;48.708;9.026;2024-02-28T05:09:36;6.10;99.90
15288;DHT22;7745;48.708;9.026;2024-02-28T05:12:03;6.10;99.90
15288;DHT22;7745;48.708;9.026;2024-02-28T05:14:31;6.00;99.90
15288;DHT22;7745;48.708;9.026;2024-02-28T05:16:58;6.00;99.90
15288;DHT22;7745;48.708;9.026;2024-02-28T05:19:25;6.00;99.90
15288;DHT22;7745;48.708;9.026;2024-02-28T05:21:52;6.00;99.90
15288;DHT22;7745;48.708;9.026;2024-02-28T05:24:19;6.00;99.90
15288;DHT22;7745;48.708;9.026;2024-02-28T05:26:46;6.00;99.90
15288;DHT22;7745;48.708;9.026;2024-02-28T05:29:13;6.00;99.90
15288;DHT22;7745;48.708;9.026;2024-02-28T05:31:41;6.00;99.90
15288;DHT22;7745;48.708;9.026;2024-02-28T05:34:08;6.00;99.90
15288;DHT22;7745;48.708;9.026;2024-02-28T05:36:35;6.00;99.90
15288;DHT22;7745;48.708;9.026;2024-02-28T05:39:02;6.00;99.90
15288;DHT22;7745;48.708;9.026;2024-02-28T05:41:31;6.00;99.90
15288;DHT22;7745;48.708;9.026;2024-02-28T05:43:58;5.90;99.90
15288;DHT22;7745;48.708;9.026;2024-02-28T05:46:25;6.00;99.90
15288;DHT22;7745;48.708;9.026;2024-02-28T05:48:53;6.00;99.90
15288;DHT22;7745;48.708;9.026;2024-02-28T05:51:20;6.00;99.90
15288;DHT22;7745;48.708;9.026;2024-02-28T05:53:48;6.00;99.90
15288;DHT22;7745;48.708;9.026;2024-02-28T05:56:15;6.00;99.90
15288;DHT22;7745;48.708;9.026;2024-02-28T05:58:46;5.90;99.90
15288;DHT22;7745;48.708;9.026;2024-02-28T06:01:15;5.90;99.90
15288;DHT22;7745;48.708;9.026;2024-02-28T06:03:42;6.00;99.90
15288;DHT22;7745;48.708;9.026;2024-02-28T06:06:11;6.00;99.90
15288;DHT22;7745;48.708;9.026;2024-02-28T06:08:39;6.00;99.90
15288;DHT22;7745;48.708;9.026;2024-02-28T06:11:06;6.00;99.90
15288;DHT22;7745;48.708;9.026;2024-02-28T06:13:33;5.90;99.90
15288;DHT22;7745;48.708;9.026;2024-02-28T06:16:00;5.90;99.90
15288;DHT22;7745;48.708;9.026;2024-02-28T06:18:28;6.00;99.90
15288;DHT22;7745;48.708;9.026;2024-02-28T06:20:59;6.00;99.90
15288;DHT22;7745;48.708;9.026;2024-02-28T06:23:27;6.00;99.90
15288;DHT22;7745;48.708;9.026;2024-02-28T06:25:54;6.00;99.90
15288;DHT22;7745;48.708;9.026;2024-02-28T06:28:21;6.10;99.90
15288;DHT22;7745;48.708;9.026;2024-02-28T06:30:48;6.00;99.90
15288;DHT22;7745;48.708;9.026;2024-02-28T06:33:15;6.10;99.90
15288;DHT22;7745;48.708;9.026;2024-02-28T06:35:42;6.10;99.90
15288;DHT22;7745;48.708;9.026;2024-02-28T06:38:09;6.00;99.90
15288;DHT22;7745;48.708;9.026;2024-02-28T06:40:37;6.10;99.90
15288;DHT22;7745;48.708;9.026;2024-02-28T06:43:04;6.10;99.90
15288;DHT22;7745;48.708;9.026;2024-02-28T06:45:31;6.10;99.90
15288;DHT22;7745;48.708;9.026;2024-02-28T06:47:58;6.10;99.90
15288;DHT22;7745;48.708;9.026;2024-02-28T06:50:25;6.00;99.90
15288;DHT22;7745;48.708;9.026;2024-02-28T06:52:52;6.10;99.90
15288;DHT22;7745;48.708;9.026;2024-02-28T06:55:19;6.10;99.90
15288;DHT22;7745;48.708;9.026;2024-02-28T06:57:47;6.20;99.90
15288;DHT22;7745;48.708;9.026;2024-02-28T07:00:15;6.20;99.90
15288;DHT22;7745;48.708;9.026;2024-02-28T07:02:41;6.20;99.90
15288;DHT22;7745;48.708;9.026;2024-02-28T07:05:08;6.10;99.90
15288;DHT22;7745;48.708;9.026;2024-02-28T07:07:35;6.10;99.90
15288;DHT22;7745;48.708;9.026;2024-02-28T07:10:03;6.70;99.90
15288;DHT22;7745;48.708;9.026;2024-02-28T07:12:31;6.20;99.90
15288;DHT22;7745;48.708;9.026;2024-02-28T07:15:07;6.20;99.90
15288;DHT22;7745;48.708;9.026;2024-02-28T07:17:37;6.10;99.90
15288;DHT22;7745;48.708;9.026;2024-02-28T07:20:05;6.60;99.90
15288;DHT22;7745;48.708;9.026;2024-02-28T07:22:32;6.20;99.90
15288;DHT22;7745;48.708;9.026;2024-02-28T07:25:01;6.20;99.90
15288;DHT22;7745;48.708;9.026;2024-02-28T07:27:30;6.20;99.90
15288;DHT22;7745;48.708;9.026;2024-02-28T07:29:58;6.20;99.90
15288;DHT22;7745;48.708;9.026;2024-02-28T07:32:27;6.20;99.90
15288;DHT22;7745;48.708;9.026;2024-02-28T07:34:54;6.40;99.90
15288;DHT22;7745;48.708;9.026;2024-02-28T07:37:21;6.20;99.90
15288;DHT22;7745;48.708;9.026;2024-02-28T07:39:48;6.20;99.90
15288;DHT22;7745;48.708;9.026;2024-02-28T07:42:14;6.30;99.90
15288;DHT22;7745;48.708;9.026;2024-02-28T07:44:41;6.30;99.90
15288;DHT22;7745;48.708;9.026;2024-02-28T07:47:08;6.20;99.90
15288;DHT22;7745;48.708;9.026;2024-02-28T07:49:36;6.30;99.90
15288;DHT22;7745;48.708;9.026;2024-02-28T07:52:03;6.30;99.90
15288;DHT22;7745;48.708;9.026;2024-02-28T07:54:30;6.30;99.90
15288;DHT22;7745;48.708;9.026;2024-02-28T07:56:56;6.40;99.90
15288;DHT22;7745;48.708;9.026;2024-02-28T07:59:23;6.40;99.90
15288;DHT22;7745;48.708;9.026;2024-02-28T08:01:50;6.40;99.90
15288;DHT22;7745;48.708;9.026;2024-02-28T08:04:17;6.30;99.90
15288;DHT22;7745;48.708;9.026;2024-02-28T08:06:45;6.40;99.90
15288;DHT22;7745;48.708;9.026;2024-02-28T08:09:12;6.30;99.90
15288;DHT22;7745;48.708;9.026;2024-02-28T08:11:40;6.40;99.90
15288;DHT22;7745;48.708;9.026;2024-02-28T08:14:06;6.40;99.90
15288;DHT22;7745;48.708;9.026;2024-02-28T08:16:33;6.40;99.90
15288;DHT22;7745;48.708;9.026;2024-02-28T08:19:00;6.40;99.90
15288;DHT22;7745;48.708;9.026;2024-02-28T08:21:26;6.40;99.90
15288;DHT22;7745;48.708;9.026;2024-02-28T08:23:55;6.50;99.90
15288;DHT22;7745;48.708;9.026;2024-02-28T08:26:23;6.40;99.90
15288;DHT22;7745;48.708;9.026;2024-02-28T08:28:50;6.40;99.90
15288;DHT22;7745;48.708;9.026;2024-02-28T08:31:17;6.40;99.90
15288;DHT22;7745;48.708;9.026;2024-02-28T08:33:44;6.50;99.90
15288;DHT22;7745;48.708;9.026;2024-02-28T08:36:10;6.50;99.90
15288;DHT22;7745;48.708;9.026;2024-02-28T08:38:37;6.50;99.90
15288;DHT22;7745;48.708;9.026;2024-02-28T08:41:07;6.50;99.90
15288;DHT22;7745;48.708;9.026;2024-02-28T08:43:37;6.60;99.90
15288;DHT22;7745;48.708;9.026;2024-02-28T08:46:03;6.50;99.90
15288;DHT22;7745;48.708;9.026;2024-02-28T08:48:31;6.60;99.90
15288;DHT22;7745;48.708;9.026;2024-02-28T08:50:58;6.60;99.90
15288;DHT22;7745;48.708;9.026;2024-02-28T08:53:25;6.60;99.90
15288;DHT22;7745;48.708;9.026;2024-02-28T08:55:51;6.70;99.90
15288;DHT22;7745;48.708;9.026;2024-02-28T08:58:20;6.60;99.90
15288;DHT22;7745;48.708;9.026;2024-02-28T09:00:46;6.70;99.90
15288;DHT22;7745;48.708;9.026;2024-02-28T09:03:14;6.70;99.90
15288;DHT22;7745;48.708;9.026;2024-02-28T09:05:41;6.60;99.90
15288;DHT22;7745;48.708;9.026;2024-02-28T09:08:08;6.60;99.90
15288;DHT22;7745;48.708;9.026;2024-02-28T09:10:35;6.90;99.90
15288;DHT22;7745;48.708;9.026;2024-02-28T09:13:01;6.70;99.90
15288;DHT22;7745;48.708;9.026;2024-02-28T09:15:30;6.80;99.90
15288;DHT22;7745;48.708;9.026;2024-02-28T09:17:57;6.70;99.90
15288;DHT22;7745;48.708;9.026;2024-02-28T09:20:24;6.70;99.90
15288;DHT22;7745;48.708;9.026;2024-02-28T09:22:51;6.70;99.90
15288;DHT22;7745;48.708;9.026;2024-02-28T09:25:18;6.70;99.90
15288;DHT22;7745;48.708;9.026;2024-02-28T09:27:46;6.70;99.90
15288;DHT22;7745;48.708;9.026;2024-02-28T09:30:14;6.60;99.90
15288;DHT22;7745;48.708;9.026;2024-02-28T09:32:43;6.70;99.90
15288;DHT22;7745;48.708;9.026;2024-02-28T09:35:10;6.80;99.90
15288;DHT22;7745;48.708;9.026;2024-02-28T09:37:37;6.80;99.90
15288;DHT22;7745;48.708;9.026;2024-02-28T09:40:04;6.90;99.90
15288;DHT22;7745;48.708;9.026;2024-02-28T09:42:34;6.90;99.90
15288;DHT22;7745;48.708;9.026;2024-02-28T09:45:02;7.00;99.90
15288;DHT22;7745;48.708;9.026;2024-02-28T09:47:30;7.10;99.90
15288;DHT22;7745;48.708;9.026;2024-02-28T09:49:58;7.10;99.90
15288;DHT22;7745;48.708;9.026;2024-02-28T09:52:26;7.20;99.90
15288;DHT22;7745;48.708;9.026;2024-02-28T09:54:54;7.10;99.90
15288;DHT22;7745;48.708;9.026;2024-02-28T09:57:21;7.20;99.90
15288;DHT22;7745;48.708;9.026;2024-02-28T09:59:54;7.20;99.90
15288;DHT22;7745;48.708;9.026;2024-02-28T10:02:23;7.20;99.90
15288;DHT22;7745;48.708;9.026;2024-02-28T10:04:51;7.30;99.90
15288;DHT22;7745;48.708;9.026;2024-02-28T10:07:20;7.30;99.90
15288;DHT22;7745;48.708;9.026;2024-02-28T10:09:47;7.40;99.90
15288;DHT22;7745;48.708;9.026;2024-02-28T10:12:14;7.50;99.90
15288;DHT22;7745;48.708;9.026;2024-02-28T10:14:41;7.50;99.90
15288;DHT22;7745;48.708;9.026;2024-02-28T10:17:07;7.40;99.90
15288;DHT22;7745;48.708;9.026;2024-02-28T10:19:34;7.40;99.90
15288;DHT22;7745;48.708;9.026;2024-02-28T10:22:01;7.40;99.90
15288;DHT22;7745;48.708;9.026;2024-02-28T10:24:29;7.60;99.90
15288;DHT22;7745;48.708;9.026;2024-02-28T10:26:56;7.40;99.90
15288;DHT22;7745;48.708;9.026;2024-02-28T10:29:27;7.50;99.90
15288;DHT22;7745;48.708;9.026;2024-02-28T10:31:55;7.50;99.90
15288;DHT22;7745;48.708;9.026;2024-02-28T10:34:22;7.50;99.90
15288;DHT22;7745;48.708;9.026;2024-02-28T10:36:49;7.80;99.90
15288;DHT22;7745;48.708;9.026;2024-02-28T10:39:16;7.60;99.90
15288;DHT22;7745;48.708;9.026;2024-02-28T10:41:46;7.60;99.90
15288;DHT22;7745;48.708;9.026;2024-02-28T10:44:14;7.70;99.90
15288;DHT22;7745;48.708;9.026;2024-02-28T10:46:43;7.70;99.90
15288;DHT22;7745;48.708;9.026;2024-02-28T10:49:10;7.70;99.90
15288;DHT22;7745;48.708;9.026;2024-02-28T10:51:37;7.70;99.90
15288;DHT22;7745;48.708;9.026;2024-02-28T10:54:10;7.70;99.90
15288;DHT22;7745;48.708;9.026;2024-02-28T10:56:38;7.70;99.90
15288;DHT22;7745;48.708;9.026;2024-02-28T10:59:08;7.80;99.90
15288;DHT22;7745;48.708;9.026;2024-02-28T11:01:36;7.90;99.90
15288;DHT22;7745;48.708;9.026;2024-02-28T11:04:03;7.90;99.90
15288;DHT22;7745;48.708;9.026;2024-02-28T11:06:31;7.80;99.90
15288;DHT22;7745;48.708;9.026;2024-02-28T11:08:59;7.80;99.90
15288;DHT22;7745;48.708;9.026;2024-02-28T11:11:30;7.80;99.90
15288;DHT22;7745;48.708;9.026;2024-02-28T11:13:58;7.70;99.90
15288;DHT22;7745;48.708;9.026;2024-02-28T11:16:28;7.80;99.90
15288;DHT22;7745;48.708;9.026;2024-02-28T11:18:55;7.70;99.90
15288;DHT22;7745;48.708;9.026;2024-02-28T11:21:24;7.80;99.90
15288;DHT22;7745;48.708;9.026;2024-02-28T11:23:52;7.90;99.90
15288;DHT22;7745;48.708;9.026;2024-02-28T11:26:23;7.90;99.90
15288;DHT22;7745;48.708;9.026;2024-02-28T11:28:50;7.90;99.90
15288;DHT22;7745;48.708;9.026;2024-02-28T11:31:18;8.00;99.90
15288;DHT22;7745;48.708;9.026;2024-02-28T11:33:46;8.10;99.90
15288;DHT22;7745;48.708;9.026;2024-02-28T11:36:13;8.00;99.90
15288;DHT22;7745;48.708;9.026;2024-02-28T11:38:40;8.10;99.90
15288;DHT22;7745;48.708;9.026;2024-02-28T11:41:07;8.10;99.90
15288;DHT22;7745;48.708;9.026;2024-02-28T11:43:34;8.10;99.90
15288;DHT22;7745;48.708;9.026;2024-02-28T11:46:01;8.10;99.90
15288;DHT22;7745;48.708;9.026;2024-02-28T11:48:29;8.10;99.90
15288;DHT22;7745;48.708;9.026;2024-02-28T11:50:59;8.10;99.90
15288;DHT22;7745;48.708;9.026;2024-02-28T11:53:26;8.30;99.90
15288;DHT22;7745;48.708;9.026;2024-02-28T11:55:53;8.30;99.90
15288;DHT22;7745;48.708;9.026;2024-02-28T11:58:21;8.10;99.90
15288;DHT22;7745;48.708;9.026;2024-02-28T12:00:48;7.80;99.90
15288;DHT22;7745;48.708;9.026;2024-02-28T12:03:20;7.80;99.90
15288;DHT22;7745;48.708;9.026;2024-02-28T12:05:47;7.70;99.90
15288;DHT22;7745;48.708;9.026;2024-02-28T12:08:17;8.00;99.90
15288;DHT22;7745;48.708;9.026;2024-02-28T12:10:45;7.70;99.90
15288;DHT22;7745;48.708;9.026;2024-02-28T12:13:15;7.70;99.90
15288;DHT22;7745;48.708;9.026;2024-02-28T12:15:42;7.70;99.90
15288;DHT22;7745;48.708;9.026;2024-02-28T12:18:09;8.00;99.90
15288;DHT22;7745;48.708;9.026;2024-02-28T12:20:36;7.70;99.90
15288;DHT22;7745;48.708;9.026;2024-02-28T12:23:03;7.70;99.90
15288;DHT22;7745;48.708;9.026;2024-02-28T12:25:32;7.70;99.90
15288;DHT22;7745;48.708;9.026;2024-02-28T12:28:00;7.70;99.90
15288;DHT22;7745;48.708;9.026;2024-02-28T12:30:27;7.60;99.90
15288;DHT22;7745;48.708;9.026;2024-02-28T12:32:54;7.60;99.90
15288;DHT22;7745;48.708;9.026;2024-02-28T12:35:20;7.60;99.90
15288;DHT22;7745;48.708;9.026;2024-02-28T12:37:47;7.70;99.90
15288;DHT22;7745;48.708;9.026;2024-02-28T12:40:16;7.60;99.90
15288;DHT22;7745;48.708;9.026;2024-02-28T12:42:43;7.70;99.90
15288;DHT22;7745;48.708;9.026;2024-02-28T12:45:10;7.70;99.90
15288;DHT22;7745;48.708;9.026;2024-02-28T12:47:37;7.70;99.90
15288;DHT22;7745;48.708;9.026;2024-02-28T12:50:05;7.80;99.90
15288;DHT22;7745;48.708;9.026;2024-02-28T12:52:33;7.70;99.90
15288;DHT22;7745;48.708;9.026;2024-02-28T12:55:00;7.70;99.90
15288;DHT22;7745;48.708;9.026;2024-02-28T12:57:28;7.80;99.90
15288;DHT22;7745;48.708;9.026;2024-02-28T12:59:56;7.80;99.90
15288;DHT22;7745;48.708;9.026;2024-02-28T13:02:23;7.80;99.90
15288;DHT22;7745;48.708;9.026;2024-02-28T13:04:49;7.80;99.90
15288;DHT22;7745;48.708;9.026;2024-02-28T13:07:16;8.00;99.90
15288;DHT22;7745;48.708;9.026;2024-02-28T13:09:45;7.70;99.90
15288;DHT22;7745;48.708;9.026;2024-02-28T13:12:12;7.70;99.90
15288;DHT22;7745;48.708;9.026;2024-02-28T13:14:38;7.60;99.90
15288;DHT22;7745;48.708;9.026;2024-02-28T13:17:06;7.60;99.90
15288;DHT22;7745;48.708;9.026;2024-02-28T13:19:33;7.60;99.90
15288;DHT22;7745;48.708;9.026;2024-02-28T13:22:01;7.50;99.90
15288;DHT22;7745;48.708;9.026;2024-02-28T13:24:28;7.50;99.90
15288;DHT22;7745;48.708;9.026;2024-02-28T13:26:54;7.40;99.90
15288;DHT22;7745;48.708;9.026;2024-02-28T13:29:21;7.40;99.90
15288;DHT22;7745;48.708;9.026;2024-02-28T13:31:48;7.40;99.90
15288;DHT22;7745;48.708;9.026;2024-02-28T13:34:16;7.40;99.90
15288;DHT22;7745;48.708;9.026;2024-02-28T13:36:43;7.40;99.90
15288;DHT22;7745;48.708;9.026;2024-02-28T13:39:10;7.40;99.90
15288;DHT22;7745;48.708;9.026;2024-02-28T13:41:38;7.30;99.90
15288;DHT22;7745;48.708;9.026;2024-02-28T13:44:05;7.30;99.90
15288;DHT22;7745;48.708;9.026;2024-02-28T13:46:33;7.30;99.90
15288;DHT22;7745;48.708;9.026;2024-02-28T13:48:59;7.20;99.90
15288;DHT22;7745;48.708;9.026;2024-02-28T13:51:28;7.30;99.90
15288;DHT22;7745;48.708;9.026;2024-02-28T13:53:54;7.30;99.90
15288;DHT22;7745;48.708;9.026;2024-02-28T13:56:21;7.30;99.90
15288;DHT22;7745;48.708;9.026;2024-02-28T13:58:48;7.30;99.90
15288;DHT22;7745;48.708;9.026;2024-02-28T14:01:15;7.30;99.90
15288;DHT22;7745;48.708;9.026;2024-02-28T14:03:43;7.30;99.90
15288;DHT22;7745;48.708;9.026;2024-02-28T14:06:09;7.30;99.90
15288;DHT22;7745;48.708;9.026;2024-02-28T14:08:38;7.30;99.90
15288;DHT22;7745;48.708;9.026;2024-02-28T14:11:04;7.30;99.90
15288;DHT22;7745;48.708;9.026;2024-02-28T14:13:31;7.30;99.90
15288;DHT22;7745;48.708;9.026;2024-02-28T14:15:58;7.30;99.90
15288;DHT22;7745;48.708;9.026;2024-02-28T14:18:25;7.40;99.90
15288;DHT22;7745;48.708;9.026;2024-02-28T14:20:51;7.40;99.90
15288;DHT22;7745;48.708;9.026;2024-02-28T14:23:18;7.40;99.90
15288;DHT22;7745;48.708;9.026;2024-02-28T14:25:47;7.40;99.90
15288;DHT22;7745;48.708;9.026;2024-02-28T14:28:14;7.50;99.90
15288;DHT22;7745;48.708;9.026;2024-02-28T14:30:42;7.50;99.90
15288;DHT22;7745;48.708;9.026;2024-02-28T14:33:10;7.50;99.90
15288;DHT22;7745;48.708;9.026;2024-02-28T14:35:37;7.70;99.90
15288;DHT22;7745;48.708;9.026;2024-02-28T14:38:04;7.60;99.90
15288;DHT22;7745;48.708;9.026;2024-02-28T14:40:32;7.50;99.90
15288;DHT22;7745;48.708;9.026;2024-02-28T14:43:00;7.80;99.90
15288;DHT22;7745;48.708;9.026;2024-02-28T14:45:27;7.60;99.90
15288;DHT22;7745;48.708;9.026;2024-02-28T14:47:53;7.70;99.90
15288;DHT22;7745;48.708;9.026;2024-02-28T14:50:20;7.60;99.90
15288;DHT22;7745;48.708;9.026;2024-02-28T14:52:47;7.60;99.90
15288;DHT22;7745;48.708;9.026;2024-02-28T14:55:14;7.60;99.90
15288;DHT22;7745;48.708;9.026;2024-02-28T14:57:41;7.60;99.90
15288;DHT22;7745;48.708;9.026;2024-02-28T15:00:10;7.60;99.90
15288;DHT22;7745;48.708;9.026;2024-02-28T15:02:39;7.60;99.90
15288;DHT22;7745;48.708;9.026;2024-02-28T15:05:07;7.50;99.90
15288;DHT22;7745;48.708;9.026;2024-02-28T15:07:34;7.50;99.90
15288;DHT22;7745;48.708;9.026;2024-02-28T15:10:01;7.50;99.90
15288;DHT22;7745;48.708;9.026;2024-02-28T15:12:29;7.40;99.90
15288;DHT22;7745;48.708;9.026;2024-02-28T15:14:58;7.40;99.90
15288;DHT22;7745;48.708;9.026;2024-02-28T15:17:26;7.50;99.90
15288;DHT22;7745;48.708;9.026;2024-02-28T15:19:53;7.70;99.90
15288;DHT22;7745;48.708;9.026;2024-02-28T15:22:20;7.50;99.90
15288;DHT22;7745;48.708;9.026;2024-02-28T15:24:47;7.40;99.90
15288;DHT22;7745;48.708;9.026;2024-02-28T15:27:14;7.40;99.90
15288;DHT22;7745;48.708;9.026;2024-02-28T15:29:41;7.40;99.90
15288;DHT22;7745;48.708;9.026;2024-02-28T15:32:08;7.40;99.90
15288;DHT22;7745;48.708;9.026;2024-02-28T15:34:38;7.40;99.90
15288;DHT22;7745;48.708;9.026;2024-02-28T15:37:05;7.50;99.90
15288;DHT22;7745;48.708;9.026;2024-02-28T15:39:31;7.70;99.90
15288;DHT22;7745;48.708;9.026;2024-02-28T15:41:58;7.50;99.90
15288;DHT22;7745;48.708;9.026;2024-02-28T15:44:26;7.70;99.90
15288;DHT22;7745;48.708;9.026;2024-02-28T15:46:53;7.60;99.90
15288;DHT22;7745;48.708;9.026;2024-02-28T15:49:21;7.40;99.90
15288;DHT22;7745;48.708;9.026;2024-02-28T15:51:49;7.40;99.90
15288;DHT22;7745;48.708;9.026;2024-02-28T15:54:17;7.50;99.90
15288;DHT22;7745;48.708;9.026;2024-02-28T15:56:44;7.50;99.90
15288;DHT22;7745;48.708;9.026;2024-02-28T15:59:11;7.30;99.90
15288;DHT22;7745;48.708;9.026;2024-02-28T16:01:39;7.60;99.90